Time;durP1;ratioP1;P1;durP2;ratioP2;P2;SDS_P1;SDS_P2;PMS_P1;PMS_P2;Temp;Humidity;BMP_temperature;BMP_pressure;BME280_temperature;BME280_humidity;BME280_pressure;Samples;Min_cycle;Max_cycle;Signal;HPM_P1;HPM_P2
2021/05/05 00:01:35;;;;;;;1.30;0.60;;;;;;;;;;4900908;29;20107;-68
2021/05/05 00:04:01;;;;;;;2.97;0.65;;;;;;;;;;4901002;29;20111;-68
2021/05/05 00:06:27;;;;;;;3.35;0.65;;;;;;;;;;4916400;29;20095;-68
2021/05/05 00:08:53;;;;;;;3.45;0.70;;;;;;;;;;4900534;29;20527;-69
2021/05/05 00:11:20;;;;;;;1.50;0.50;;;;;;;;;;4917712;29;20052;-68
2021/05/05 00:13:46;;;;;;;1.02;0.60;;;;;;;;;;4916297;29;20140;-68
2021/05/05 00:16:12;;;;;;;2.30;0.70;;;;;;;;;;4934534;29;20562;-68
2021/05/05 00:18:38;;;;;;;3.00;0.80;;;;;;;;;;4936304;29;20103;-68
2021/05/05 00:21:04;;;;;;;0.95;0.65;;;;;;;;;;4936347;29;20495;-68
2021/05/05 00:23:30;;;;;;;2.47;0.80;;;;;;;;;;4935214;29;20055;-68
2021/05/05 00:25:56;;;;;;;0.60;0.35;;;;;;;;;;4914691;29;20116;-68
2021/05/05 00:28:22;;;;;;;0.52;0.50;;;;;;;;;;4936162;29;20094;-68
2021/05/05 00:30:48;;;;;;;2.38;0.82;;;;;;;;;;4919200;29;20047;-68
2021/05/05 00:33:15;;;;;;;0.60;0.40;;;;;;;;;;4919289;29;20118;-68
2021/05/05 00:35:41;;;;;;;4.55;0.80;;;;;;;;;;4935838;29;20055;-68
2021/05/05 00:38:09;;;;;;;2.83;0.77;;;;;;;;;;4936109;29;20051;-68
2021/05/05 00:40:36;;;;;;;1.67;0.93;;;;;;;;;;4935994;29;20566;-68
2021/05/05 00:43:02;;;;;;;4.53;0.68;;;;;;;;;;4903661;29;20091;-68
2021/05/05 00:45:28;;;;;;;2.55;0.60;;;;;;;;;;4935279;29;20316;-68
2021/05/05 00:47:55;;;;;;;1.10;1.00;;;;;;;;;;4936571;29;20051;-68
2021/05/05 00:50:21;;;;;;;4.63;0.70;;;;;;;;;;4919461;29;20114;-68
2021/05/05 00:52:47;;;;;;;1.15;0.60;;;;;;;;;;4936044;29;20051;-68
2021/05/05 00:55:14;;;;;;;3.03;0.68;;;;;;;;;;4930114;29;20193;-68
2021/05/05 00:57:40;;;;;;;3.30;0.82;;;;;;;;;;4900303;29;20511;-68
2021/05/05 01:00:08;;;;;;;3.47;0.80;;;;;;;;;;4900455;29;20139;-69
2021/05/05 01:02:34;;;;;;;1.75;0.60;;;;;;;;;;4917733;29;20056;-68
2021/05/05 01:05:01;;;;;;;4.30;0.65;;;;;;;;;;4900178;29;20071;-68
2021/05/05 01:07:28;;;;;;;2.45;0.60;;;;;;;;;;4916873;29;20044;-68
2021/05/05 01:09:54;;;;;;;2.20;0.73;;;;;;;;;;4903644;29;20056;-68
2021/05/05 01:12:20;;;;;;;2.35;0.70;;;;;;;;;;4912029;29;20056;-69
2021/05/05 01:14:46;;;;;;;3.78;0.77;;;;;;;;;;4936631;29;20106;-69
2021/05/05 01:17:13;;;;;;;4.07;1.15;;;;;;;;;;4918477;29;20048;-68
2021/05/05 01:19:40;;;;;;;3.38;1.02;;;;;;;;;;4934857;29;20051;-68
2021/05/05 01:22:06;;;;;;;5.30;1.52;;;;;;;;;;4934177;29;20487;-68
2021/05/05 01:24:33;;;;;;;5.05;0.90;;;;;;;;;;4918431;29;20470;-68
2021/05/05 01:26:59;;;;;;;2.25;0.70;;;;;;;;;;4918396;29;20056;-69
2021/05/05 01:29:25;;;;;;;4.80;0.98;;;;;;;;;;4935825;29;20090;-68
2021/05/05 01:31:52;;;;;;;4.63;1.10;;;;;;;;;;4919235;29;20103;-68
2021/05/05 01:34:18;;;;;;;2.70;0.70;;;;;;;;;;4919117;29;20052;-68
2021/05/05 01:37:27;;;;;;;5.93;1.08;;;;;;;;;;4934518;29;20051;-68
2021/05/05 01:39:53;;;;;;;2.03;0.77;;;;;;;;;;4933734;29;20051;-68
2021/05/05 01:42:19;;;;;;;1.63;0.77;;;;;;;;;;4917013;29;20548;-68
2021/05/05 01:44:45;;;;;;;3.40;0.90;;;;;;;;;;4915312;29;20108;-68
2021/05/05 01:47:13;;;;;;;3.28;1.05;;;;;;;;;;4916235;29;20056;-69
2021/05/05 01:49:44;;;;;;;5.38;1.00;;;;;;;;;;4921607;23;20044;-76
2021/05/05 01:52:11;;;;;;;3.30;0.90;;;;;;;;;;4914633;29;20578;-77
2021/05/05 01:54:37;;;;;;;6.97;1.13;;;;;;;;;;4930393;29;20060;-76
2021/05/05 01:57:33;;;;;;;2.70;0.75;;;;;;;;;;4929746;29;20459;-76
2021/05/05 02:00:05;;;;;;;3.72;1.20;;;;;;;;;;4914994;29;20084;-76
2021/05/05 02:02:31;;;;;;;2.53;0.90;;;;;;;;;;4915792;29;20059;-75
2021/05/05 02:04:58;;;;;;;3.05;1.00;;;;;;;;;;4929918;29;20494;-75
2021/05/05 02:07:24;;;;;;;2.50;0.88;;;;;;;;;;4930065;29;20048;-75
2021/05/05 02:09:50;;;;;;;4.28;0.75;;;;;;;;;;4914270;29;20108;-76
2021/05/05 02:12:17;;;;;;;4.38;1.38;;;;;;;;;;4915689;29;20115;-75
2021/05/05 02:14:45;;;;;;;2.40;0.80;;;;;;;;;;4915564;29;20500;-75
2021/05/05 02:17:11;;;;;;;1.90;0.70;;;;;;;;;;4898661;29;20045;-75
2021/05/05 02:19:38;;;;;;;5.13;0.90;;;;;;;;;;4915675;29;20067;-75
2021/05/05 02:22:04;;;;;;;4.88;0.93;;;;;;;;;;4915880;29;20468;-75
2021/05/05 02:24:30;;;;;;;2.28;0.93;;;;;;;;;;4915705;29;20088;-75
2021/05/05 02:26:56;;;;;;;2.45;0.70;;;;;;;;;;4915226;29;20472;-75
2021/05/05 02:29:22;;;;;;;1.55;1.00;;;;;;;;;;4914297;29;20052;-75
2021/05/05 02:31:49;;;;;;;2.17;1.13;;;;;;;;;;4914257;29;20052;-75
2021/05/05 02:34:15;;;;;;;5.47;0.90;;;;;;;;;;4914412;29;20075;-75
2021/05/05 02:36:41;;;;;;;1.63;0.68;;;;;;;;;;4913978;29;20431;-75
2021/05/05 02:39:16;;;;;;;1.35;0.63;;;;;;;;;;4914244;29;20120;-76
2021/05/05 02:41:42;;;;;;;5.30;1.10;;;;;;;;;;4914030;29;20052;-75
2021/05/05 02:44:09;;;;;;;5.63;1.23;;;;;;;;;;4914292;29;20423;-75
2021/05/05 02:46:35;;;;;;;2.80;0.70;;;;;;;;;;4913711;29;20075;-75
2021/05/05 02:49:02;;;;;;;3.47;0.85;;;;;;;;;;4913945;29;20048;-75
2021/05/05 02:51:28;;;;;;;2.83;1.00;;;;;;;;;;4914021;29;20052;-75
2021/05/05 02:53:54;;;;;;;1.65;0.82;;;;;;;;;;4915202;29;20048;-75
2021/05/05 02:56:20;;;;;;;3.45;0.88;;;;;;;;;;4915028;29;20185;-75
2021/05/05 02:58:46;;;;;;;4.80;0.90;;;;;;;;;;4915011;29;20583;-75
2021/05/05 03:01:12;;;;;;;4.75;1.10;;;;;;;;;;4915108;29;20079;-75
2021/05/05 03:03:39;;;;;;;1.35;0.80;;;;;;;;;;4915158;29;20048;-75
2021/05/05 03:06:05;;;;;;;2.58;0.95;;;;;;;;;;4914509;29;20099;-75
2021/05/05 03:08:31;;;;;;;2.15;1.00;;;;;;;;;;4917053;29;20048;-75
2021/05/05 03:10:57;;;;;;;2.67;1.10;;;;;;;;;;4918636;29;20104;-75
2021/05/05 03:13:23;;;;;;;1.20;0.80;;;;;;;;;;4919006;29;20474;-75
2021/05/05 03:15:49;;;;;;;1.73;0.80;;;;;;;;;;4918426;29;20052;-75
2021/05/05 03:18:15;;;;;;;2.60;1.15;;;;;;;;;;4918603;29;20056;-75
2021/05/05 03:20:42;;;;;;;1.75;0.93;;;;;;;;;;4918549;29;20088;-75
2021/05/05 03:23:08;;;;;;;1.63;0.90;;;;;;;;;;4917440;29;20056;-75
2021/05/05 03:25:34;;;;;;;3.33;1.05;;;;;;;;;;4932867;29;20052;-74
2021/05/05 03:28:00;;;;;;;2.55;1.08;;;;;;;;;;4918434;29;20059;-75
2021/05/05 03:30:26;;;;;;;0.80;0.75;;;;;;;;;;4918361;29;20115;-75
2021/05/05 03:32:52;;;;;;;2.35;0.80;;;;;;;;;;4918328;29;20408;-74
2021/05/05 03:35:19;;;;;;;2.42;1.08;;;;;;;;;;4916981;29;20080;-74
2021/05/05 03:37:45;;;;;;;2.45;0.80;;;;;;;;;;4918192;29;20044;-74
2021/05/05 03:40:11;;;;;;;3.42;0.90;;;;;;;;;;4918105;29;20471;-74
2021/05/05 03:42:37;;;;;;;4.68;1.42;;;;;;;;;;4917034;29;20111;-74
2021/05/05 03:45:05;;;;;;;1.92;1.00;;;;;;;;;;4918130;29;20056;-75
2021/05/05 03:47:31;;;;;;;4.30;1.10;;;;;;;;;;4932259;29;20052;-75
2021/05/05 03:49:58;;;;;;;5.80;1.42;;;;;;;;;;4917339;29;20067;-74
2021/05/05 03:52:24;;;;;;;3.25;0.82;;;;;;;;;;4917029;29;20052;-75
2021/05/05 03:54:50;;;;;;;1.48;0.93;;;;;;;;;;4916734;29;20491;-74
2021/05/05 03:57:16;;;;;;;2.83;0.77;;;;;;;;;;4916767;29;20075;-75
2021/05/05 03:59:43;;;;;;;2.22;1.00;;;;;;;;;;4916582;29;20063;-75
2021/05/05 04:02:09;;;;;;;3.95;1.13;;;;;;;;;;4916770;29;20111;-75
2021/05/05 04:04:35;;;;;;;3.05;0.95;;;;;;;;;;4916623;29;20079;-74
2021/05/05 04:07:02;;;;;;;3.05;1.00;;;;;;;;;;4916493;29;20055;-75
2021/05/05 04:09:28;;;;;;;3.83;0.88;;;;;;;;;;4931186;29;20052;-75
2021/05/05 04:11:54;;;;;;;4.20;1.08;;;;;;;;;;4915402;29;20470;-75
2021/05/05 04:14:20;;;;;;;1.83;0.90;;;;;;;;;;4916722;29;20056;-75
2021/05/05 04:17:04;;;;;;;3.20;1.00;;;;;;;;;;4928612;29;20113;-75
2021/05/05 04:19:48;;;;;;;2.28;0.80;;;;;;;;;;4928252;29;20051;-75
2021/05/05 04:22:32;;;;;;;3.90;0.75;;;;;;;;;;4916077;29;20047;-75
2021/05/05 04:25:16;;;;;;;3.17;0.70;;;;;;;;;;4915307;29;20261;-75
2021/05/05 04:27:43;;;;;;;3.75;1.00;;;;;;;;;;4915117;29;20103;-76
2021/05/05 04:30:13;;;;;;;2.72;0.77;;;;;;;;;;4930991;29;20124;-75
2021/05/05 04:32:41;;;;;;;4.55;1.00;;;;;;;;;;4914997;29;20099;-76
2021/05/05 04:35:08;;;;;;;4.40;0.80;;;;;;;;;;4930829;29;20067;-76
2021/05/05 04:37:34;;;;;;;3.90;0.77;;;;;;;;;;4914914;29;20523;-76
2021/05/05 04:40:01;;;;;;;3.63;1.50;;;;;;;;;;4915011;29;20080;-76
2021/05/05 04:42:27;;;;;;;2.33;0.98;;;;;;;;;;4916015;29;20399;-76
2021/05/05 04:44:53;;;;;;;2.20;0.82;;;;;;;;;;4914857;29;20135;-76
2021/05/05 04:47:19;;;;;;;4.55;1.95;;;;;;;;;;4914858;29;20059;-76
2021/05/05 04:49:46;;;;;;;1.63;0.88;;;;;;;;;;4909733;29;614095;-76
2021/05/05 04:52:12;;;;;;;2.08;0.98;;;;;;;;;;4921376;29;20111;-76
2021/05/05 04:54:38;;;;;;;0.95;0.70;;;;;;;;;;4916991;29;20104;-77
2021/05/05 04:57:05;;;;;;;0.95;0.50;;;;;;;;;;4915418;29;20103;-77
2021/05/05 04:59:31;;;;;;;1.63;0.63;;;;;;;;;;4916845;29;20056;-76
2021/05/05 05:01:57;;;;;;;1.13;0.70;;;;;;;;;;4916596;29;20048;-77
2021/05/05 05:04:23;;;;;;;1.90;0.70;;;;;;;;;;4915568;29;20048;-77
2021/05/05 05:06:49;;;;;;;1.13;0.60;;;;;;;;;;4916545;29;20107;-77
2021/05/05 05:09:15;;;;;;;2.33;0.70;;;;;;;;;;4914783;29;20507;-76
2021/05/05 05:11:41;;;;;;;1.77;1.00;;;;;;;;;;4897642;29;20052;-76
2021/05/05 05:14:07;;;;;;;1.55;1.00;;;;;;;;;;4898025;29;20108;-76
2021/05/05 05:16:33;;;;;;;2.67;1.00;;;;;;;;;;4897457;29;20056;-77
2021/05/05 05:19:00;;;;;;;1.48;0.68;;;;;;;;;;4920353;29;20100;-76
2021/05/05 05:21:26;;;;;;;3.78;1.05;;;;;;;;;;4916286;29;20472;-76
2021/05/05 05:23:54;;;;;;;4.45;0.98;;;;;;;;;;4916328;29;20088;-77
2021/05/05 05:26:20;;;;;;;1.90;0.82;;;;;;;;;;4915145;29;20515;-76
2021/05/05 05:28:46;;;;;;;1.77;0.63;;;;;;;;;;4916462;29;20488;-76
2021/05/05 05:31:12;;;;;;;1.60;1.20;;;;;;;;;;4915471;29;20104;-76
2021/05/05 05:33:38;;;;;;;2.90;2.03;;;;;;;;;;4916306;29;20119;-76
2021/05/05 05:36:05;;;;;;;2.03;0.82;;;;;;;;;;4916189;29;20056;-76
2021/05/05 05:38:31;;;;;;;0.98;0.60;;;;;;;;;;4916109;29;20056;-76
2021/05/05 05:40:57;;;;;;;1.85;0.70;;;;;;;;;;4916549;29;20135;-75
2021/05/05 05:43:23;;;;;;;0.85;0.50;;;;;;;;;;4915883;29;20059;-76
2021/05/05 05:45:49;;;;;;;2.58;0.90;;;;;;;;;;4916008;29;20094;-76
2021/05/05 05:48:15;;;;;;;2.83;0.70;;;;;;;;;;4915848;29;20092;-76
2021/05/05 05:50:41;;;;;;;2.13;0.73;;;;;;;;;;4915798;29;20408;-76
2021/05/05 05:53:07;;;;;;;0.82;0.70;;;;;;;;;;4930597;29;20499;-76
2021/05/05 05:55:35;;;;;;;1.30;0.70;;;;;;;;;;4930275;29;20055;-77
2021/05/05 05:58:03;;;;;;;2.15;0.77;;;;;;;;;;4930451;29;20048;-76
2021/05/05 06:00:30;;;;;;;2.38;0.70;;;;;;;;;;4914599;29;20467;-76
2021/05/05 06:02:56;;;;;;;1.75;0.77;;;;;;;;;;4930307;29;20479;-78
2021/05/05 06:05:22;;;;;;;1.05;0.68;;;;;;;;;;4930265;29;20209;-79
2021/05/05 06:07:49;;;;;;;1.27;0.60;;;;;;;;;;4915587;29;20047;-77
2021/05/05 06:10:15;;;;;;;1.80;0.65;;;;;;;;;;4915545;29;20052;-77
2021/05/05 06:12:41;;;;;;;2.08;0.80;;;;;;;;;;4914686;29;20201;-76
2021/05/05 06:15:09;;;;;;;1.42;0.70;;;;;;;;;;4915659;29;20088;-77
2021/05/05 06:17:35;;;;;;;1.75;0.80;;;;;;;;;;4914264;29;20135;-76
2021/05/05 06:20:03;;;;;;;1.67;1.00;;;;;;;;;;4914413;29;20146;-77
2021/05/05 06:22:29;;;;;;;4.10;1.20;;;;;;;;;;4914452;29;20103;-77
2021/05/05 06:24:55;;;;;;;2.03;1.17;;;;;;;;;;4914605;29;20154;-77
2021/05/05 06:27:22;;;;;;;3.75;1.80;;;;;;;;;;4911330;29;20139;-76
2021/05/05 06:29:48;;;;;;;4.95;1.20;;;;;;;;;;4895559;29;20052;-77
2021/05/05 06:32:15;;;;;;;2.08;1.00;;;;;;;;;;4895933;29;20052;-77
2021/05/05 06:34:42;;;;;;;6.93;3.58;;;;;;;;;;4895579;29;20131;-77
2021/05/05 06:37:08;;;;;;;7.63;3.17;;;;;;;;;;4910994;29;20056;-77
2021/05/05 06:39:34;;;;;;;7.70;2.03;;;;;;;;;;4911120;29;20087;-77
2021/05/05 06:42:00;;;;;;;2.55;1.17;;;;;;;;;;4896668;29;20053;-77
2021/05/05 06:44:26;;;;;;;5.22;1.52;;;;;;;;;;4906771;29;20067;-77
2021/05/05 06:46:55;;;;;;;3.03;1.63;;;;;;;;;;4917765;29;20357;-76
2021/05/05 06:49:22;;;;;;;1.77;1.08;;;;;;;;;;4933365;29;20143;-78
2021/05/05 06:51:48;;;;;;;3.95;1.50;;;;;;;;;;4916446;29;20087;-75
2021/05/05 06:54:14;;;;;;;6.32;1.67;;;;;;;;;;4933681;29;20431;-75
2021/05/05 06:56:40;;;;;;;5.38;1.58;;;;;;;;;;4933761;29;20079;-76
2021/05/05 06:59:07;;;;;;;4.65;1.50;;;;;;;;;;4934689;29;20196;-79
2021/05/05 07:01:36;;;;;;;8.70;1.40;;;;;;;;;;4919094;29;20052;-78
2021/05/05 07:04:07;;;;;;;6.20;1.42;;;;;;;;;;4927726;29;20096;-74
2021/05/05 07:06:34;;;;;;;5.13;2.17;;;;;;;;;;4902034;29;20479;-77
2021/05/05 07:09:00;;;;;;;3.70;1.17;;;;;;;;;;4898174;29;20653;-78
2021/05/05 07:11:27;;;;;;;3.45;1.17;;;;;;;;;;4907585;29;20048;-79
2021/05/05 07:13:53;;;;;;;7.53;1.20;;;;;;;;;;4889644;29;20091;-79
2021/05/05 07:16:20;;;;;;;6.93;1.30;;;;;;;;;;4898348;29;20082;-78
2021/05/05 07:18:47;;;;;;;4.53;1.23;;;;;;;;;;4920750;29;20103;-78
2021/05/05 07:21:14;;;;;;;3.83;1.25;;;;;;;;;;4902482;29;20100;-78
2021/05/05 07:23:40;;;;;;;6.35;1.05;;;;;;;;;;4906139;29;20052;-76
2021/05/05 07:26:07;;;;;;;5.53;1.67;;;;;;;;;;4903803;29;20059;-76
2021/05/05 07:28:34;;;;;;;6.90;2.15;;;;;;;;;;4895359;29;20087;-76
2021/05/05 07:31:00;;;;;;;5.90;1.48;;;;;;;;;;4902155;29;20124;-76
2021/05/05 07:33:30;;;;;;;4.35;1.38;;;;;;;;;;4901738;29;20055;-76
2021/05/05 07:35:59;;;;;;;5.22;1.38;;;;;;;;;;4897669;29;20179;-74
2021/05/05 07:46:43;;;;;;;4.75;1.88;;;;;;;;;;4901182;29;20109;-73
2021/05/05 07:49:12;;;;;;;5.20;1.20;;;;;;;;;;4897561;29;20051;-76
2021/05/05 07:51:38;;;;;;;9.88;2.17;;;;;;;;;;4910694;29;20099;-75
2021/05/05 07:54:03;;;;;;;2.97;1.50;;;;;;;;;;4894175;29;20040;-75
2021/05/05 07:56:29;;;;;;;4.22;1.40;;;;;;;;;;4906309;29;20036;-74
2021/05/05 07:59:00;;;;;;;3.80;1.13;;;;;;;;;;4903709;29;20084;-75
2021/05/05 08:01:26;;;;;;;5.63;1.02;;;;;;;;;;4903133;29;20044;-75
2021/05/05 08:03:52;;;;;;;4.18;1.10;;;;;;;;;;4902446;29;20091;-78
2021/05/05 08:06:18;;;;;;;3.10;1.00;;;;;;;;;;4906782;29;20577;-77
2021/05/05 08:08:44;;;;;;;6.55;1.15;;;;;;;;;;4913871;29;20052;-76
2021/05/05 08:11:11;;;;;;;4.05;0.85;;;;;;;;;;4902755;29;20044;-76
2021/05/05 08:13:39;;;;;;;4.22;1.40;;;;;;;;;;4913438;29;20067;-76
2021/05/05 08:16:06;;;;;;;3.40;0.80;;;;;;;;;;4893628;29;20048;-76
2021/05/05 08:18:33;;;;;;;6.55;1.10;;;;;;;;;;4904053;29;20073;-77
2021/05/05 08:21:05;;;;;;;1.73;0.90;;;;;;;;;;4905374;29;20047;-76
2021/05/05 08:23:31;;;;;;;4.28;1.27;;;;;;;;;;4909852;29;20075;-77
2021/05/05 08:25:57;;;;;;;3.63;1.30;;;;;;;;;;4900990;29;20315;-73
2021/05/05 08:28:23;;;;;;;4.75;1.30;;;;;;;;;;4893108;29;20101;-77
2021/05/05 08:30:51;;;;;;;2.97;1.00;;;;;;;;;;4912710;29;20056;-75
2021/05/05 08:33:19;;;;;;;7.75;1.58;;;;;;;;;;4911676;29;20055;-78
2021/05/05 08:35:45;;;;;;;5.95;1.35;;;;;;;;;;4905423;29;20124;-77
2021/05/05 08:38:11;;;;;;;7.95;1.25;;;;;;;;;;4912096;29;20447;-77
2021/05/05 08:40:37;;;;;;;4.95;1.20;;;;;;;;;;4902876;29;20064;-76
2021/05/05 08:43:03;;;;;;;5.65;0.98;;;;;;;;;;4903879;29;20566;-77
2021/05/05 08:45:30;;;;;;;4.60;1.65;;;;;;;;;;4913024;29;20567;-76
2021/05/05 08:48:01;;;;;;;6.72;1.10;;;;;;;;;;4902899;29;20052;-77
2021/05/05 08:50:29;;;;;;;5.65;1.17;;;;;;;;;;4905122;29;20064;-76
2021/05/05 08:52:56;;;;;;;4.65;1.00;;;;;;;;;;4910330;29;20083;-74
2021/05/05 08:55:23;;;;;;;5.25;1.17;;;;;;;;;;4902607;29;20088;-75
2021/05/05 08:57:50;;;;;;;2.08;1.00;;;;;;;;;;4920943;29;20111;-76
2021/05/05 09:00:18;;;;;;;3.47;1.45;;;;;;;;;;4928947;29;20528;-75
2021/05/05 09:02:45;;;;;;;4.88;0.95;;;;;;;;;;4927092;29;20088;-75
2021/05/05 09:05:53;;;;;;;5.35;1.38;;;;;;;;;;4911351;29;20438;-75
2021/05/05 09:08:21;;;;;;;5.45;1.15;;;;;;;;;;4914576;29;20507;-76
2021/05/05 09:10:58;;;;;;;4.13;0.85;;;;;;;;;;4922986;29;20447;-75
2021/05/05 09:13:53;;;;;;;7.28;1.38;;;;;;;;;;4895551;29;20085;-75
2021/05/05 09:16:24;;;;;;;5.65;1.00;;;;;;;;;;4895708;29;20052;-72
2021/05/05 09:19:03;;;;;;;5.20;1.20;;;;;;;;;;4909607;29;20523;-73
2021/05/05 09:21:30;;;;;;;3.55;1.58;;;;;;;;;;4905353;29;20052;-74
2021/05/05 09:24:26;;;;;;;5.03;1.20;;;;;;;;;;4928882;29;20139;-73
2021/05/05 09:26:57;;;;;;;2.38;0.80;;;;;;;;;;4914013;29;20057;-74
2021/05/05 09:29:41;;;;;;;1.90;1.00;;;;;;;;;;4918824;29;20087;-72
2021/05/05 09:32:08;;;;;;;4.82;0.82;;;;;;;;;;4900603;29;20055;-72
2021/05/05 09:34:35;;;;;;;3.72;0.85;;;;;;;;;;4896851;29;20318;-71
2021/05/05 09:37:04;;;;;;;3.88;1.10;;;;;;;;;;4913925;29;20599;-70
2021/05/05 09:39:33;;;;;;;1.85;1.05;;;;;;;;;;4904649;29;20060;-70
2021/05/05 09:41:59;;;;;;;3.03;0.80;;;;;;;;;;4900570;29;20518;-71
2021/05/05 09:44:26;;;;;;;4.43;1.10;;;;;;;;;;4901651;29;20095;-68
2021/05/05 09:46:57;;;;;;;3.75;1.35;;;;;;;;;;4901099;29;20065;-71
2021/05/05 09:49:28;;;;;;;2.80;0.82;;;;;;;;;;4907338;29;20059;-71
2021/05/05 09:52:01;;;;;;;2.90;0.80;;;;;;;;;;4904813;29;20590;-73
2021/05/05 09:54:34;;;;;;;5.35;1.10;;;;;;;;;;4901159;29;20107;-72
2021/05/05 09:57:21;;;;;;;2.72;0.80;;;;;;;;;;4899670;29;20482;-69
2021/05/05 10:00:10;;;;;;;4.95;1.30;;;;;;;;;;4903005;29;20074;-70
2021/05/05 10:02:46;;;;;;;3.72;0.90;;;;;;;;;;4905036;29;20051;-71
2021/05/05 10:05:18;;;;;;;4.72;0.88;;;;;;;;;;4902504;29;20477;-70
2021/05/05 10:08:04;;;;;;;6.95;1.45;;;;;;;;;;4901529;29;20052;-69
2021/05/05 10:10:31;;;;;;;1.17;0.70;;;;;;;;;;4903973;29;20048;-71
2021/05/05 10:13:02;;;;;;;4.22;0.93;;;;;;;;;;4900291;29;20112;-70
2021/05/05 10:15:30;;;;;;;2.50;0.88;;;;;;;;;;4910971;29;20131;-70
2021/05/05 10:17:57;;;;;;;5.97;1.00;;;;;;;;;;4892666;29;20083;-70
2021/05/05 10:20:26;;;;;;;3.47;0.95;;;;;;;;;;4905649;29;20059;-70
2021/05/05 10:22:53;;;;;;;3.53;1.15;;;;;;;;;;4908597;29;20464;-70
2021/05/05 10:25:19;;;;;;;3.03;1.15;;;;;;;;;;4910078;29;20055;-70
2021/05/05 10:27:45;;;;;;;7.85;1.88;;;;;;;;;;4901036;29;20448;-69
2021/05/05 10:30:14;;;;;;;3.33;1.40;;;;;;;;;;4902668;29;20044;-69
2021/05/05 10:32:42;;;;;;;2.95;0.90;;;;;;;;;;4900033;29;20136;-70
2021/05/05 10:35:09;;;;;;;5.40;0.73;;;;;;;;;;4930753;23;20064;-67
2021/05/05 10:37:43;;;;;;;2.75;1.00;;;;;;;;;;4905600;29;20056;-68
2021/05/05 10:40:16;;;;;;;3.03;1.08;;;;;;;;;;4911400;29;20051;-67
2021/05/05 10:42:57;;;;;;;5.70;0.85;;;;;;;;;;4909014;29;20510;-66
2021/05/05 10:45:33;;;;;;;2.58;0.77;;;;;;;;;;4885312;29;20119;-67
2021/05/05 10:48:10;;;;;;;2.47;1.00;;;;;;;;;;4900633;29;20566;-70
2021/05/05 10:50:50;;;;;;;3.75;0.50;;;;;;;;;;4907396;29;20104;-68
2021/05/05 10:53:37;;;;;;;1.02;0.38;;;;;;;;;;4906494;29;20053;-67
2021/05/05 10:56:03;;;;;;;1.95;0.68;;;;;;;;;;4911878;29;20080;-69
2021/05/05 10:58:30;;;;;;;0.88;0.38;;;;;;;;;;4915991;29;20566;-69
2021/05/05 11:01:02;;;;;;;1.48;0.50;;;;;;;;;;4909287;29;20099;-68
2021/05/05 11:03:47;;;;;;;1.75;0.77;;;;;;;;;;4889478;29;20053;-68
2021/05/05 11:06:36;;;;;;;3.05;0.50;;;;;;;;;;4887573;29;20052;-69
2021/05/05 11:09:16;;;;;;;1.00;0.80;;;;;;;;;;4908095;29;20131;-67
2021/05/05 11:11:45;;;;;;;2.28;0.63;;;;;;;;;;4904278;29;20053;-69
2021/05/05 11:14:24;;;;;;;2.53;0.88;;;;;;;;;;4917604;29;20064;-69
2021/05/05 11:17:09;;;;;;;2.03;0.90;;;;;;;;;;4888179;29;20058;-69
2021/05/05 11:19:42;;;;;;;3.28;1.23;;;;;;;;;;4903499;29;20045;-73
2021/05/05 11:22:23;;;;;;;2.20;1.60;;;;;;;;;;4876653;29;20052;-71
2021/05/05 11:24:50;;;;;;;5.03;2.90;;;;;;;;;;4902920;29;20048;-71
2021/05/05 11:27:18;;;;;;;1.83;1.33;;;;;;;;;;4888215;29;20135;-72
2021/05/05 11:29:47;;;;;;;2.40;1.25;;;;;;;;;;4875743;29;20041;-71
2021/05/05 11:32:14;;;;;;;1.35;0.70;;;;;;;;;;4918992;29;20163;-71
2021/05/05 11:34:45;;;;;;;1.75;0.80;;;;;;;;;;4920695;29;20555;-71
2021/05/05 11:37:25;;;;;;;2.05;0.70;;;;;;;;;;4917028;29;20088;-70
2021/05/05 11:39:54;;;;;;;0.90;0.77;;;;;;;;;;4909581;29;20108;-70
2021/05/05 11:42:28;;;;;;;2.20;0.90;;;;;;;;;;4894686;29;20049;-71
2021/05/05 11:45:10;;;;;;;1.88;0.77;;;;;;;;;;4905414;29;20082;-70
2021/05/05 11:47:40;;;;;;;;;;;;;;;;;;4905428;29;20107;-72
2021/05/05 11:50:21;;;;;;;1.70;0.98;;;;;;;;;;4896595;29;19962;-73
2021/05/05 11:52:50;;;;;;;1.40;0.88;;;;;;;;;;4915094;29;20060;-70
2021/05/05 11:55:22;;;;;;;2.92;0.90;;;;;;;;;;4903837;29;20179;-70
2021/05/05 11:57:56;;;;;;;2.97;0.80;;;;;;;;;;4913131;29;20111;-73
2021/05/05 12:00:28;;;;;;;3.60;0.80;;;;;;;;;;4914349;29;20075;-70
2021/05/05 12:03:02;;;;;;;2.35;1.10;;;;;;;;;;4920119;29;20060;-70
2021/05/05 12:05:42;;;;;;;4.13;0.85;;;;;;;;;;4922700;29;20048;-72
2021/05/05 12:08:15;;;;;;;3.22;1.00;;;;;;;;;;4899641;29;20052;-71
2021/05/05 12:10:57;;;;;;;2.10;0.98;;;;;;;;;;4906333;29;20068;-72
2021/05/05 12:13:31;;;;;;;3.45;1.25;;;;;;;;;;4928197;29;20479;-72
2021/05/05 12:16:29;;;;;;;4.03;1.10;;;;;;;;;;4921054;29;20171;-72
2021/05/05 12:18:55;;;;;;;2.22;0.80;;;;;;;;;;4910524;29;20120;-73
2021/05/05 12:21:24;;;;;;;1.27;0.80;;;;;;;;;;4932818;29;20045;-72
2021/05/05 12:23:53;;;;;;;6.28;1.00;;;;;;;;;;4910362;29;20072;-71
2021/05/05 12:26:20;;;;;;;2.13;0.80;;;;;;;;;;4886302;29;20045;-69
2021/05/05 12:28:48;;;;;;;2.55;0.88;;;;;;;;;;4907655;29;20096;-71
2021/05/05 12:31:16;;;;;;;2.58;1.00;;;;;;;;;;4912100;29;20052;-68
2021/05/05 12:33:44;;;;;;;0.95;0.85;;;;;;;;;;4903525;29;20056;-69
2021/05/05 12:36:31;;;;;;;6.13;1.35;;;;;;;;;;4905994;29;20053;-70
2021/05/05 12:39:03;;;;;;;4.10;1.30;;;;;;;;;;4918987;29;20056;-69
2021/05/05 12:41:40;;;;;;;2.38;1.02;;;;;;;;;;4924808;29;20070;-69
2021/05/05 12:44:06;;;;;;;2.40;1.40;;;;;;;;;;4921594;29;20055;-69
2021/05/05 12:46:54;;;;;;;4.20;1.08;;;;;;;;;;4902656;29;20080;-69
2021/05/05 12:49:29;;;;;;;1.45;0.50;;;;;;;;;;4901940;29;20049;-69
2021/05/05 12:51:56;;;;;;;1.92;0.57;;;;;;;;;;4913838;29;20045;-68
2021/05/05 12:54:27;;;;;;;3.10;0.60;;;;;;;;;;4904705;29;20053;-70
2021/05/05 12:56:54;;;;;;;2.00;0.50;;;;;;;;;;4907656;29;20052;-69
2021/05/05 12:59:31;;;;;;;0.38;0.38;;;;;;;;;;4908598;29;20044;-71
2021/05/05 13:02:04;;;;;;;0.80;0.30;;;;;;;;;;4896363;29;20522;-70
2021/05/05 13:04:37;;;;;;;1.60;0.60;;;;;;;;;;4901960;29;20140;-69
2021/05/05 13:07:04;;;;;;;0.77;0.45;;;;;;;;;;4902187;29;20060;-69
2021/05/05 13:09:31;;;;;;;0.57;0.40;;;;;;;;;;4919112;29;20051;-69
2021/05/05 13:12:21;;;;;;;2.55;1.10;;;;;;;;;;4914375;29;20052;-68
2021/05/05 13:14:59;;;;;;;1.80;0.60;;;;;;;;;;4913131;29;20056;-68
2021/05/05 13:31:28;;;;;;;0.60;0.50;;;;;;;;;;4900015;29;20099;-68
2021/05/05 13:34:03;;;;;;;3.90;1.20;;;;;;;;;;4903435;29;20541;-68
2021/05/05 13:36:57;;;;;;;1.00;0.60;;;;;;;;;;4902914;29;20056;-68
2021/05/05 13:39:28;;;;;;;2.47;0.80;;;;;;;;;;4913973;29;20098;-68
2021/05/05 13:41:59;;;;;;;0.75;0.68;;;;;;;;;;4910736;29;20115;-68
2021/05/05 13:44:41;;;;;;;4.13;1.02;;;;;;;;;;4893485;29;20076;-68
2021/05/05 13:47:24;;;;;;;1.38;0.65;;;;;;;;;;4896012;29;20566;-68
2021/05/05 13:49:58;;;;;;;3.05;0.80;;;;;;;;;;4912922;29;20104;-68
2021/05/05 13:52:25;;;;;;;2.13;1.08;;;;;;;;;;4896405;29;20136;-67
2021/05/05 13:55:06;;;;;;;1.33;1.10;;;;;;;;;;4899257;29;20059;-67
2021/05/05 13:57:32;;;;;;;2.40;0.80;;;;;;;;;;4913998;29;20484;-71
2021/05/05 13:59:59;;;;;;;3.60;1.05;;;;;;;;;;4914157;29;20048;-71
2021/05/05 14:02:25;;;;;;;2.10;0.88;;;;;;;;;;4913969;29;20056;-71
2021/05/05 14:04:51;;;;;;;2.78;1.10;;;;;;;;;;4912379;29;20079;-69
2021/05/05 14:07:18;;;;;;;2.67;1.20;;;;;;;;;;4913949;29;20512;-69
2021/05/05 14:09:45;;;;;;;5.05;1.83;;;;;;;;;;4913639;29;20059;-70
2021/05/05 14:12:12;;;;;;;4.00;1.95;;;;;;;;;;4912985;29;20056;-70
2021/05/05 14:14:38;;;;;;;2.85;1.48;;;;;;;;;;4896849;29;20107;-70
2021/05/05 14:17:04;;;;;;;4.20;2.03;;;;;;;;;;4928321;29;20487;-73
2021/05/05 14:19:31;;;;;;;1.10;1.00;;;;;;;;;;4914604;29;20056;-72
2021/05/05 14:21:57;;;;;;;3.58;1.00;;;;;;;;;;4898478;29;20491;-71
2021/05/05 14:24:23;;;;;;;6.75;2.58;;;;;;;;;;4873133;29;20053;-71
2021/05/05 14:26:49;;;;;;;2.17;1.20;;;;;;;;;;4907621;29;20049;-73
2021/05/05 14:29:20;;;;;;;2.25;1.23;;;;;;;;;;4902359;29;20112;-71
2021/05/05 14:31:46;;;;;;;1.27;0.98;;;;;;;;;;4921510;29;20053;-73
2021/05/05 14:34:12;;;;;;;2.25;0.90;;;;;;;;;;4918973;29;20530;-73
2021/05/05 14:36:39;;;;;;;0.82;0.80;;;;;;;;;;4887010;29;20092;-74
2021/05/05 14:39:10;;;;;;;2.35;0.90;;;;;;;;;;4887361;29;20584;-69
2021/05/05 14:41:36;;;;;;;2.10;1.33;;;;;;;;;;4920341;29;20099;-71
2021/05/05 14:44:27;;;;;;;1.52;1.08;;;;;;;;;;4919174;29;20059;-73
2021/05/05 14:49:45;;;;;;;2.65;0.90;;;;;;;;;;4915256;29;20076;-70
2021/05/05 14:52:12;;;;;;;1.70;0.90;;;;;;;;;;4905010;29;20063;-71
2021/05/05 14:54:38;;;;;;;3.35;0.75;;;;;;;;;;4903983;29;20056;-70
2021/05/05 14:57:04;;;;;;;2.92;1.15;;;;;;;;;;4901939;29;20104;-69
2021/05/05 14:59:31;;;;;;;2.85;0.90;;;;;;;;;;4921187;29;20048;-68
2021/05/05 15:01:57;;;;;;;3.88;2.08;;;;;;;;;;4917104;29;20052;-68
2021/05/05 15:04:24;;;;;;;1.40;0.85;;;;;;;;;;4905248;29;20053;-69
2021/05/05 15:06:52;;;;;;;2.08;1.20;;;;;;;;;;4924541;29;20138;-75
2021/05/05 15:17:43;;;;;;;0.93;0.55;;;;;;;;;;4919116;29;20056;-73
2021/05/05 15:36:10;;;;;;;1.85;0.70;;;;;;;;;;4898088;29;20088;-69
2021/05/05 15:38:51;;;;;;;1.55;0.68;;;;;;;;;;4933818;29;20044;-71
2021/05/05 15:46:31;;;;;;;1.88;0.50;;;;;;;;;;4905219;29;20107;-69
2021/05/05 15:48:57;;;;;;;1.13;0.52;;;;;;;;;;4905194;29;20423;-70
2021/05/05 15:51:23;;;;;;;1.77;0.60;;;;;;;;;;4903761;29;20048;-71